Sunday, June 17, 2018, 10:11 PM EDT
Back to Local

KMPO, Mt Pocono Pocono Mountains

Location: Pocono Summit, PA, United States Lat: 41.133
Local Time: 10:11 PM EDT ( 2:11 GMT) Lon: -75.383
Time Zone: US/Eastern Elev: 1915 ft

Show me the last for .
Show Decoded

2018-06-17 21:53 METAR KMPO 180153Z AUTO 24004KT 10SM CLR 21/17 A3011 RMK AO2 SLP185 T02110167 =
2018-06-17 20:53 METAR KMPO 180053Z AUTO 00000KT 10SM CLR 23/17 A3011 RMK AO2 SLP182 T02330167 =
2018-06-17 19:53 METAR KMPO 172353Z AUTO 22005KT 10SM FEW055 25/17 A3012 RMK AO2 SLP185 T02500167
                 10289 20250 58003 =
2018-06-17 18:53 METAR KMPO 172253Z AUTO 26005KT 10SM SCT065 26/16 A3012 RMK AO2 SLP188 T02560161
                 =
2018-06-17 17:53 METAR KMPO 172153Z AUTO 24008KT 10SM BKN060 28/16 A3012 RMK AO2 SLP192 T02780156
                 =
2018-06-17 16:53 METAR KMPO 172053Z AUTO 28006KT 10SM OVC065 27/15 A3012 RMK AO2 SLP193 T02720150
                 55001 =
2018-06-17 15:53 METAR KMPO 171953Z AUTO 29006KT 10SM CLR 28/14 A3012 RMK AO2 SLP191 T02830144 =
2018-06-17 14:53 METAR KMPO 171853Z AUTO 10SM FEW060 28/14 A3013 RMK AO2 SLP192 T02830139 =
2018-06-17 13:53 METAR KMPO 171753Z AUTO 26009KT 10SM CLR 28/13 A3013 RMK AO2 SLP192 T02780133
                 10278 20211 56015 =
2018-06-17 12:53 METAR KMPO 171653Z AUTO VRB03KT 10SM CLR 28/13 A3014 RMK AO2 SLP197 T02780128 =
2018-06-17 11:53 METAR KMPO 171553Z AUTO 00000KT 10SM CLR 27/12 A3016 RMK AO2 SLP203 T02670117 =
2018-06-17 10:53 METAR KMPO 171453Z AUTO 26007KT 10SM CLR 26/12 A3017 RMK AO2 SLP208 T02560122
                 52008 =
2018-06-17 09:53 METAR KMPO 171353Z AUTO 26006KT 10SM CLR 24/13 A3015 RMK AO2 SLP202 T02390128 =
2018-06-17 08:53 METAR KMPO 171253Z AUTO 26003KT 10SM CLR 23/13 A3017 RMK AO2 SLP205 T02280133 =
2018-06-17 07:53 METAR KMPO 171153Z AUTO 00000KT 10SM CLR 21/14 A3015 RMK AO2 SLP199 T02060139
                 10206 20100 53014 =
2018-06-17 06:53 METAR KMPO 171053Z AUTO 00000KT 10SM CLR 15/14 A3012 RMK AO2 SLP192 T01500139 =
2018-06-17 05:53 METAR KMPO 170953Z AUTO 00000KT 10SM CLR 11/11 A3011 RMK AO2 SLP191 T01060106 =
2018-06-17 04:53 METAR KMPO 170853Z AUTO 00000KT 10SM CLR 10/10 A3011 RMK AO2 SLP189 T01000100
                 51004 =
2018-06-17 03:53 METAR KMPO 170753Z AUTO 01003KT 10SM CLR 12/11 A3010 RMK AO2 SLP187 T01170106 =
2018-06-17 02:53 METAR KMPO 170653Z AUTO 02003KT 10SM CLR 11/11 A3010 RMK AO2 SLP187 T01110106 =
2018-06-17 01:53 METAR KMPO 170553Z AUTO 02003KT 10SM CLR 12/11 A3009 RMK AO2 SLP185 T01170106
                 10211 20111 58001 =
2018-06-17 00:53 METAR KMPO 170453Z AUTO 01003KT 10SM CLR 12/11 A3010 RMK AO2 SLP189 T01220111
                 402500056 =
2018-06-16 23:53 METAR KMPO 170353Z AUTO 00000KT 10SM CLR 13/12 A3011 RMK AO2 SLP189 T01280117 =
2018-06-16 22:53 METAR KMPO 170253Z AUTO 00000KT 10SM CLR 14/13 A3010 RMK AO2 SLP186 T01390128
                 53009 =

Support USWX by starting your Amazon purchase here.